Time;durP1;ratioP1;P1;durP2;ratioP2;P2;SDS_P1;SDS_P2;PMS_P1;PMS_P2;Temp;Humidity;BMP_temperature;BMP_pressure;BME280_temperature;BME280_humidity;BME280_pressure;Samples;Min_cycle;Max_cycle;Signal;HPM_P1;HPM_P2
2023/04/15 00:02:17;;;;;;;9.27;3.35;;;8.80;97.20;;;;;;5072892;28;20453;-67
2023/04/15 00:04:47;;;;;;;8.50;3.22;;;8.80;97.50;;;;;;5072982;28;20119;-67
2023/04/15 00:07:13;;;;;;;8.40;3.67;;;8.70;97.70;;;;;;5072907;28;20036;-67
2023/04/15 00:09:40;;;;;;;9.20;3.25;;;8.70;97.90;;;;;;5072851;28;20048;-67
2023/04/15 00:12:07;;;;;;;8.45;3.30;;;8.70;98.10;;;;;;5072594;28;20457;-67
2023/04/15 00:14:35;;;;;;;6.68;3.58;;;8.70;98.40;;;;;;5073038;28;20040;-67
2023/04/15 00:17:01;;;;;;;7.13;3.70;;;8.70;98.60;;;;;;5072698;28;20066;-67
2023/04/15 00:19:26;;;;;;;11.02;3.85;;;8.60;98.80;;;;;;5072561;28;20040;-67
2023/04/15 00:21:52;;;;;;;10.18;3.88;;;8.60;99.00;;;;;;5072563;28;20107;-67
2023/04/15 00:24:18;;;;;;;11.02;3.60;;;8.50;99.30;;;;;;5072608;28;20095;-67
2023/04/15 00:26:43;;;;;;;8.98;3.70;;;8.50;99.40;;;;;;5072773;28;20048;-67
2023/04/15 00:29:09;;;;;;;6.35;3.50;;;8.50;99.70;;;;;;5072523;28;20548;-67
2023/04/15 00:31:35;;;;;;;11.23;3.97;;;8.40;99.90;;;;;;5072390;28;20063;-67
2023/04/15 00:34:01;;;;;;;10.57;4.00;;;8.40;99.90;;;;;;5072415;28;20045;-67
2023/04/15 00:36:27;;;;;;;8.98;4.03;;;8.30;99.90;;;;;;5072341;28;20044;-67
2023/04/15 00:38:52;;;;;;;8.70;3.80;;;8.30;99.90;;;;;;5073565;28;20076;-67
2023/04/15 00:41:18;;;;;;;12.90;4.55;;;8.30;99.90;;;;;;5072144;28;20048;-67
2023/04/15 00:43:44;;;;;;;12.57;4.32;;;8.30;99.90;;;;;;5073770;28;20592;-67
2023/04/15 00:46:13;;;;;;;9.90;3.80;;;8.30;99.90;;;;;;5073702;28;20385;-67
2023/04/15 00:48:39;;;;;;;8.10;3.92;;;8.20;99.90;;;;;;5072475;28;20112;-67
2023/04/15 00:51:06;;;;;;;7.78;3.60;;;8.20;99.90;;;;;;5072064;28;20115;-67
2023/04/15 00:53:32;;;;;;;9.80;4.07;;;8.20;99.90;;;;;;5072099;28;20044;-67
2023/04/15 00:55:57;;;;;;;10.05;4.07;;;8.20;99.90;;;;;;5072325;28;20040;-67
2023/04/15 00:58:23;;;;;;;10.57;4.70;;;8.10;99.90;;;;;;5072034;28;20132;-68
2023/04/15 01:00:53;;;;;;;9.85;4.70;;;8.10;99.90;;;;;;5071919;28;20045;-67
2023/04/15 01:03:19;;;;;;;9.85;4.57;;;8.10;99.90;;;;;;5072246;28;20044;-67
2023/04/15 01:05:45;;;;;;;9.27;4.43;;;8.10;99.90;;;;;;5071954;28;20040;-67
2023/04/15 01:08:11;;;;;;;8.75;4.32;;;8.00;99.90;;;;;;5071947;28;20044;-67
2023/04/15 01:10:37;;;;;;;8.35;3.75;;;8.00;99.90;;;;;;5071827;28;20048;-67
2023/04/15 01:13:03;;;;;;;11.25;4.60;;;8.00;99.90;;;;;;5072117;28;20044;-67
2023/04/15 01:15:29;;;;;;;9.00;4.38;;;7.90;99.90;;;;;;5071840;28;20386;-67
2023/04/15 01:17:57;;;;;;;8.75;4.57;;;8.00;99.90;;;;;;5072083;28;20067;-67
2023/04/15 01:20:23;;;;;;;9.55;4.72;;;7.90;99.90;;;;;;5071638;28;20072;-68
2023/04/15 01:22:49;;;;;;;14.13;4.68;;;7.90;99.90;;;;;;5071208;28;20130;-67
2023/04/15 01:25:21;;;;;;;8.85;4.60;;;7.80;99.90;;;;;;5071748;28;20587;-67
2023/04/15 01:27:47;;;;;;;8.83;4.30;;;7.80;99.90;;;;;;5072310;28;20040;-67
2023/04/15 01:30:13;;;;;;;13.38;5.40;;;7.80;99.90;;;;;;5071939;28;20550;-67
2023/04/15 01:32:38;;;;;;;12.25;4.53;;;7.80;99.90;;;;;;5071822;28;20044;-67
2023/04/15 01:35:04;;;;;;;7.57;4.50;;;7.70;99.90;;;;;;5071652;28;20531;-67
2023/04/15 01:37:30;;;;;;;10.10;5.10;;;7.80;99.90;;;;;;5071581;28;20037;-67
2023/04/15 01:39:56;;;;;;;8.63;5.50;;;7.70;99.90;;;;;;5055007;28;20091;-67
2023/04/15 01:42:23;;;;;;;10.82;4.90;;;7.70;99.90;;;;;;5071742;28;20045;-67
2023/04/15 01:44:48;;;;;;;9.98;5.35;;;7.70;99.90;;;;;;5071778;28;20040;-67
2023/04/15 01:47:14;;;;;;;9.82;4.90;;;7.60;99.90;;;;;;5071504;28;20432;-67
2023/04/15 01:49:40;;;;;;;10.93;5.60;;;7.60;99.90;;;;;;5071409;28;20102;-67
2023/04/15 01:52:06;;;;;;;10.52;5.65;;;7.60;99.90;;;;;;5071376;28;20048;-67
2023/04/15 01:54:31;;;;;;;11.60;5.35;;;7.60;99.90;;;;;;5071451;28;20044;-67
2023/04/15 01:56:57;;;;;;;9.85;5.45;;;7.60;99.90;;;;;;5071360;28;20067;-67
2023/04/15 01:59:23;;;;;;;10.38;5.60;;;7.50;99.90;;;;;;5071618;28;20072;-67
2023/04/15 02:01:48;;;;;;;11.25;6.38;;;7.50;99.90;;;;;;5071565;28;20473;-67
2023/04/15 02:04:17;;;;;;;10.45;5.70;;;7.40;99.90;;;;;;5071345;28;20498;-67
2023/04/15 02:06:43;;;;;;;11.55;5.85;;;7.40;99.90;;;;;;5071327;28;20046;-67
2023/04/15 02:09:09;;;;;;;13.00;5.85;;;7.40;99.90;;;;;;5072563;28;20044;-67
2023/04/15 02:11:36;;;;;;;12.82;6.00;;;7.40;99.90;;;;;;5072434;28;20033;-67
2023/04/15 02:14:03;;;;;;;9.82;6.00;;;7.30;99.90;;;;;;5071284;28;20119;-67
2023/04/15 02:16:29;;;;;;;11.65;6.00;;;7.30;99.90;;;;;;5071497;28;20036;-67
2023/04/15 02:18:55;;;;;;;12.98;6.60;;;7.30;99.90;;;;;;5072514;28;20451;-67
2023/04/15 02:21:21;;;;;;;11.82;7.25;;;7.30;99.90;;;;;;5071034;28;20040;-67
2023/04/15 02:23:47;;;;;;;11.80;6.20;;;7.30;99.90;;;;;;5071194;28;20041;-67
2023/04/15 02:26:13;;;;;;;10.15;6.22;;;7.20;99.90;;;;;;5071153;28;20041;-67
2023/04/15 02:28:38;;;;;;;10.57;5.78;;;7.20;99.90;;;;;;5071135;28;20040;-67
2023/04/15 02:31:08;;;;;;;11.50;6.10;;;7.20;99.90;;;;;;5071292;28;20040;-67
2023/04/15 02:33:34;;;;;;;11.68;6.93;;;7.20;99.90;;;;;;5071081;28;20048;-67
2023/04/15 02:36:00;;;;;;;13.30;6.82;;;7.20;99.90;;;;;;5074509;28;20144;-67
2023/04/15 02:38:26;;;;;;;9.77;6.97;;;7.10;99.90;;;;;;5074870;28;20053;-67
2023/04/15 02:40:51;;;;;;;11.88;6.30;;;7.10;99.90;;;;;;5074432;28;20101;-67
2023/04/15 02:43:17;;;;;;;11.70;7.15;;;7.10;99.90;;;;;;5058114;28;20048;-67
2023/04/15 02:45:44;;;;;;;10.48;6.53;;;7.10;99.90;;;;;;5075689;28;20485;-67
2023/04/15 02:48:10;;;;;;;13.13;7.38;;;7.10;99.90;;;;;;5074434;28;20040;-67
2023/04/15 02:50:38;;;;;;;12.30;7.10;;;7.00;99.90;;;;;;5075576;28;20043;-67
2023/04/15 02:53:04;;;;;;;11.45;7.25;;;7.00;99.90;;;;;;5074348;28;20051;-67
2023/04/15 02:55:30;;;;;;;11.00;7.20;;;7.00;99.90;;;;;;5074576;28;20051;-67
2023/04/15 02:57:58;;;;;;;11.00;7.15;;;7.00;99.90;;;;;;5074065;28;20451;-67
2023/04/15 03:00:24;;;;;;;10.68;7.40;;;7.00;99.90;;;;;;5074026;28;20052;-68
2023/04/15 03:02:55;;;;;;;12.73;7.32;;;6.90;99.90;;;;;;5074183;28;20040;-67
2023/04/15 03:05:24;;;;;;;12.75;7.00;;;6.90;99.90;;;;;;5074168;28;20048;-67
2023/04/15 03:07:50;;;;;;;9.40;7.00;;;6.90;99.90;;;;;;5074086;28;20083;-67
2023/04/15 03:10:16;;;;;;;13.38;6.82;;;6.90;99.90;;;;;;5074034;28;20051;-67
2023/04/15 03:12:41;;;;;;;10.50;6.90;;;6.90;99.90;;;;;;5057187;28;20044;-67
2023/04/15 03:15:08;;;;;;;12.35;6.80;;;6.80;99.90;;;;;;5074189;28;20040;-67
2023/04/15 03:17:34;;;;;;;12.40;7.10;;;6.90;99.90;;;;;;5073906;28;20079;-67
2023/04/15 03:20:02;;;;;;;15.70;7.80;;;6.80;99.90;;;;;;5075027;28;20076;-67
2023/04/15 03:22:27;;;;;;;12.27;7.78;;;6.80;99.90;;;;;;5073702;28;20134;-67
2023/04/15 03:24:53;;;;;;;13.23;7.68;;;6.80;99.90;;;;;;5073749;28;20072;-67
2023/04/15 03:27:19;;;;;;;10.57;7.10;;;6.70;99.90;;;;;;5074952;28;20051;-67
2023/04/15 03:29:45;;;;;;;9.00;7.03;;;6.70;99.90;;;;;;5073604;28;20041;-67
2023/04/15 03:32:11;;;;;;;12.15;7.57;;;6.70;99.90;;;;;;5074769;28;20040;-67
2023/04/15 03:34:37;;;;;;;8.90;7.05;;;6.70;99.90;;;;;;5074814;28;20089;-67
2023/04/15 03:37:02;;;;;;;12.77;7.85;;;6.70;99.90;;;;;;5073501;28;20120;-67
2023/04/15 03:39:28;;;;;;;11.98;7.80;;;6.70;99.90;;;;;;5073405;28;20132;-67
2023/04/15 03:41:54;;;;;;;11.98;8.32;;;6.60;99.90;;;;;;5073330;28;20101;-67
2023/04/15 03:44:19;;;;;;;9.85;7.53;;;6.60;99.90;;;;;;5073317;28;20040;-67
2023/04/15 03:46:45;;;;;;;11.95;7.90;;;6.60;99.90;;;;;;5072917;28;20035;-67
2023/04/15 03:49:10;;;;;;;11.20;8.13;;;6.60;99.90;;;;;;5073258;28;20040;-67
2023/04/15 03:51:36;;;;;;;13.10;7.80;;;6.50;99.90;;;;;;5073181;28;20072;-67
2023/04/15 03:54:02;;;;;;;12.13;7.82;;;6.50;99.90;;;;;;5073415;28;20075;-67
2023/04/15 03:56:27;;;;;;;13.52;8.27;;;6.50;99.90;;;;;;5073095;28;20076;-67
2023/04/15 03:58:53;;;;;;;11.45;8.18;;;6.50;99.90;;;;;;5072976;28;20063;-67
2023/04/15 04:01:18;;;;;;;12.13;8.07;;;6.50;99.90;;;;;;5072951;28;20076;-67
2023/04/15 04:03:44;;;;;;;13.98;8.85;;;6.40;99.90;;;;;;5072963;28;20505;-67
2023/04/15 04:06:11;;;;;;;12.43;8.10;;;6.40;99.90;;;;;;5073152;28;20044;-67
2023/04/15 04:08:37;;;;;;;13.68;8.43;;;6.40;99.90;;;;;;5072853;28;20051;-67
2023/04/15 04:11:03;;;;;;;12.02;8.45;;;6.40;99.90;;;;;;5073244;28;20052;-67
2023/04/15 04:13:29;;;;;;;13.65;8.20;;;6.40;99.90;;;;;;5072786;28;20051;-67
2023/04/15 04:15:55;;;;;;;13.07;9.40;;;6.40;99.90;;;;;;5072722;28;20063;-67
2023/04/15 04:18:20;;;;;;;10.82;7.97;;;6.40;99.90;;;;;;5072676;28;20083;-67
2023/04/15 04:20:46;;;;;;;10.30;8.27;;;6.40;99.90;;;;;;5072447;28;20174;-67
2023/04/15 04:23:12;;;;;;;12.95;8.90;;;6.30;99.90;;;;;;5072580;28;20043;-67
2023/04/15 04:25:37;;;;;;;13.70;9.25;;;6.30;99.90;;;;;;5072786;28;20123;-67
2023/04/15 04:28:03;;;;;;;13.77;9.43;;;6.40;99.90;;;;;;5072478;28;20485;-67
2023/04/15 04:30:29;;;;;;;10.07;8.27;;;6.40;99.90;;;;;;5072368;28;20044;-67
2023/04/15 04:32:54;;;;;;;11.80;9.10;;;6.30;99.90;;;;;;5072662;28;20037;-68
2023/04/15 04:35:20;;;;;;;10.85;8.55;;;6.30;99.90;;;;;;5072392;28;20412;-67
2023/04/15 04:37:46;;;;;;;13.10;9.48;;;6.30;99.90;;;;;;5072333;28;20044;-67
2023/04/15 04:40:12;;;;;;;11.98;9.73;;;6.30;99.90;;;;;;5072168;28;20139;-67
2023/04/15 04:42:38;;;;;;;12.57;9.27;;;6.30;99.90;;;;;;5072232;28;20508;-67
2023/04/15 04:45:04;;;;;;;14.57;9.80;;;6.30;99.90;;;;;;5072232;28;20075;-67
2023/04/15 04:47:30;;;;;;;14.57;10.48;;;6.30;99.90;;;;;;5072234;28;20191;-67
2023/04/15 04:49:55;;;;;;;14.80;10.48;;;6.20;99.90;;;;;;5072149;28;20044;-67
2023/04/15 04:52:21;;;;;;;13.82;11.02;;;6.30;99.90;;;;;;5072071;28;20048;-67
2023/04/15 04:54:46;;;;;;;13.88;10.57;;;6.20;99.90;;;;;;5072095;28;20040;-67
2023/04/15 04:57:12;;;;;;;16.38;10.65;;;6.20;99.90;;;;;;5071397;28;20098;-67
2023/04/15 04:59:38;;;;;;;13.88;11.30;;;6.20;99.90;;;;;;5071767;28;20044;-67
2023/04/15 05:02:04;;;;;;;14.07;11.88;;;6.20;99.90;;;;;;5073177;28;20028;-67
2023/04/15 05:04:30;;;;;;;17.05;11.43;;;6.30;99.90;;;;;;5072228;28;20041;-67
2023/04/15 05:06:57;;;;;;;15.60;11.82;;;6.20;99.90;;;;;;5071910;28;20044;-67
2023/04/15 05:09:22;;;;;;;13.73;11.77;;;6.20;99.90;;;;;;5072415;28;20107;-67
2023/04/15 05:11:48;;;;;;;16.00;12.07;;;6.30;99.90;;;;;;5071821;28;20516;-67
2023/04/15 05:14:14;;;;;;;14.57;12.35;;;6.30;99.90;;;;;;5072128;28;20036;-67
2023/04/15 05:16:39;;;;;;;16.35;12.52;;;6.30;99.90;;;;;;5072070;28;20393;-67
2023/04/15 05:19:05;;;;;;;14.18;11.52;;;6.30;99.90;;;;;;5073331;28;20042;-67
2023/04/15 05:21:30;;;;;;;17.63;11.98;;;6.30;99.90;;;;;;5071634;28;20572;-67
2023/04/15 05:23:56;;;;;;;15.60;11.68;;;6.20;99.90;;;;;;5071747;28;20047;-67
2023/04/15 05:26:23;;;;;;;15.02;12.10;;;6.20;99.90;;;;;;5072030;28;20037;-67
2023/04/15 05:28:49;;;;;;;14.40;11.85;;;6.30;99.90;;;;;;5071761;28;20040;-67
2023/04/15 05:31:15;;;;;;;14.93;12.43;;;6.30;99.90;;;;;;5071631;28;20098;-67
2023/04/15 05:33:40;;;;;;;17.20;13.15;;;6.30;99.90;;;;;;5071927;28;20561;-67
2023/04/15 05:36:06;;;;;;;15.43;12.00;;;6.30;99.90;;;;;;5071703;28;20115;-67
2023/04/15 05:38:32;;;;;;;16.60;12.40;;;6.30;99.90;;;;;;5071897;28;20102;-67
2023/04/15 05:40:58;;;;;;;16.75;12.52;;;6.40;99.90;;;;;;5071494;28;20044;-68
2023/04/15 05:43:23;;;;;;;14.93;12.43;;;6.40;99.90;;;;;;5071856;28;20120;-67
2023/04/15 05:45:49;;;;;;;13.63;10.82;;;6.40;99.90;;;;;;5071796;28;20489;-67
2023/04/15 05:48:15;;;;;;;15.10;11.57;;;6.40;99.90;;;;;;5071533;28;20040;-67
2023/04/15 05:50:41;;;;;;;16.80;12.10;;;6.40;99.90;;;;;;5071674;28;20048;-67
2023/04/15 05:53:07;;;;;;;14.80;12.13;;;6.50;99.90;;;;;;5071755;28;20040;-67
2023/04/15 05:55:33;;;;;;;17.10;12.82;;;6.50;99.90;;;;;;5071718;28;20489;-67
2023/04/15 05:57:58;;;;;;;14.80;12.85;;;6.60;99.90;;;;;;5071235;28;20053;-67
2023/04/15 06:00:24;;;;;;;15.20;12.65;;;6.60;99.90;;;;;;5071424;28;20040;-67
2023/04/15 06:02:51;;;;;;;16.65;13.10;;;6.70;99.90;;;;;;5071393;28;20413;-67
2023/04/15 06:05:17;;;;;;;16.08;12.80;;;6.70;99.90;;;;;;5071387;28;20501;-67
2023/04/15 06:07:42;;;;;;;14.43;11.90;;;6.80;99.90;;;;;;5071316;28;20037;-67
2023/04/15 06:10:09;;;;;;;17.33;11.57;;;6.80;99.90;;;;;;5074087;28;20047;-67
2023/04/15 06:12:35;;;;;;;14.43;11.68;;;6.80;99.90;;;;;;5074986;28;20569;-67
2023/04/15 06:15:00;;;;;;;14.05;12.07;;;6.90;99.90;;;;;;5075064;28;20080;-67
2023/04/15 06:17:26;;;;;;;14.55;11.55;;;7.00;99.90;;;;;;5075016;28;20044;-67
2023/04/15 06:19:54;;;;;;;15.95;12.70;;;7.10;99.90;;;;;;5074919;28;20044;-67
2023/04/15 06:22:23;;;;;;;16.08;12.10;;;7.10;99.90;;;;;;5074809;28;20405;-67
2023/04/15 06:24:50;;;;;;;14.00;11.32;;;7.20;99.90;;;;;;5074841;28;20051;-67
2023/04/15 06:27:16;;;;;;;14.65;11.80;;;7.30;99.90;;;;;;5058169;28;20037;-67
2023/04/15 06:29:42;;;;;;;12.80;11.35;;;7.40;99.90;;;;;;5074762;28;20404;-67
2023/04/15 06:32:07;;;;;;;14.20;11.40;;;7.50;99.90;;;;;;5074968;28;20040;-67
2023/04/15 06:34:33;;;;;;;13.30;11.43;;;7.60;99.90;;;;;;5074755;28;20510;-67
2023/04/15 06:36:59;;;;;;;14.10;11.43;;;7.70;99.90;;;;;;5074744;28;20070;-67
2023/04/15 06:39:25;;;;;;;15.25;12.15;;;7.80;99.90;;;;;;5074853;28;20040;-67
2023/04/15 06:41:51;;;;;;;13.98;10.40;;;7.80;99.90;;;;;;5074525;28;20502;-67
2023/04/15 06:44:17;;;;;;;15.25;10.85;;;7.90;99.90;;;;;;5074468;28;20040;-67
2023/04/15 06:46:43;;;;;;;14.30;11.32;;;8.00;99.90;;;;;;5074484;28;20374;-67
2023/04/15 06:49:10;;;;;;;15.20;11.60;;;8.10;99.90;;;;;;5074626;28;20044;-67
2023/04/15 06:51:36;;;;;;;16.80;12.15;;;8.20;99.90;;;;;;5074509;28;20045;-67
2023/04/15 06:54:04;;;;;;;14.80;11.68;;;8.20;99.90;;;;;;5074733;28;20052;-67
2023/04/15 06:56:31;;;;;;;15.60;12.05;;;8.30;99.90;;;;;;5074442;28;20489;-67
2023/04/15 06:58:56;;;;;;;15.85;11.30;;;8.40;99.90;;;;;;5074317;28;20036;-67
2023/04/15 07:01:22;;;;;;;13.82;11.05;;;8.40;99.90;;;;;;5074139;28;20041;-67
2023/04/15 07:03:48;;;;;;;14.23;10.32;;;8.50;99.90;;;;;;5074250;28;20162;-67
2023/04/15 07:06:13;;;;;;;14.38;10.43;;;8.50;99.90;;;;;;5074190;28;20032;-67
2023/04/15 07:08:39;;;;;;;13.38;10.27;;;8.60;99.90;;;;;;5074408;28;20040;-67
2023/04/15 07:11:05;;;;;;;12.93;10.02;;;8.70;99.90;;;;;;5074023;28;20456;-67
2023/04/15 07:13:31;;;;;;;13.70;10.50;;;8.80;99.90;;;;;;5074334;28;20121;-67
2023/04/15 07:15:57;;;;;;;11.82;9.95;;;8.80;99.90;;;;;;5057376;28;20075;-67
2023/04/15 07:18:23;;;;;;;16.00;10.25;;;8.90;99.90;;;;;;5074330;28;20067;-67
2023/04/15 07:20:48;;;;;;;12.85;9.55;;;8.90;99.90;;;;;;5073297;28;20048;-68
2023/04/15 07:23:14;;;;;;;13.63;9.60;;;9.00;99.90;;;;;;5074124;28;20076;-67
2023/04/15 07:25:40;;;;;;;16.10;9.32;;;9.10;99.90;;;;;;5073838;28;20378;-67
2023/04/15 07:28:05;;;;;;;13.68;9.68;;;9.10;99.90;;;;;;5073764;28;20040;-67
2023/04/15 07:30:31;;;;;;;11.93;9.65;;;9.10;99.90;;;;;;5073893;28;20048;-67
2023/04/15 07:32:57;;;;;;;11.93;9.45;;;9.20;99.90;;;;;;5073668;28;20051;-67
2023/04/15 07:35:24;;;;;;;11.30;9.60;;;9.30;99.90;;;;;;5073868;28;20530;-67
2023/04/15 07:37:51;;;;;;;11.15;8.85;;;9.30;99.90;;;;;;5073588;28;20052;-67
2023/04/15 07:40:17;;;;;;;11.70;8.95;;;9.40;99.90;;;;;;5074690;28;20045;-67
2023/04/15 07:42:43;;;;;;;12.35;8.95;;;9.40;99.90;;;;;;5073359;28;20109;-68
2023/04/15 07:45:09;;;;;;;11.10;8.90;;;9.50;99.90;;;;;;5073384;28;20065;-68
2023/04/15 07:47:35;;;;;;;11.55;8.65;;;9.60;99.90;;;;;;5073318;28;20036;-68
2023/04/15 07:50:01;;;;;;;10.95;8.48;;;9.60;99.90;;;;;;5073335;28;20050;-68
2023/04/15 07:52:27;;;;;;;11.10;8.23;;;9.70;99.90;;;;;;5074718;28;20111;-68
2023/04/15 07:54:53;;;;;;;9.98;7.13;;;9.70;99.90;;;;;;5073233;28;20044;-68
2023/04/15 07:57:18;;;;;;;9.70;7.20;;;9.70;99.90;;;;;;5073602;28;20052;-68
2023/04/15 07:59:44;;;;;;;9.55;7.10;;;9.70;99.90;;;;;;5073054;28;20052;-67
2023/04/15 08:02:10;;;;;;;9.70;7.15;;;9.70;99.90;;;;;;5073246;28;20047;-68
2023/04/15 08:04:36;;;;;;;8.68;6.00;;;9.80;99.90;;;;;;5073028;28;20032;-67
2023/04/15 08:07:02;;;;;;;9.80;6.00;;;9.80;99.90;;;;;;5072992;28;20094;-67
2023/04/15 08:09:28;;;;;;;9.00;6.35;;;9.80;99.90;;;;;;5072964;28;20055;-67
2023/04/15 08:11:55;;;;;;;10.07;5.78;;;9.90;99.90;;;;;;5072787;28;20040;-67
2023/04/15 08:14:21;;;;;;;8.93;5.40;;;9.90;99.90;;;;;;5072863;28;20052;-67
2023/04/15 08:16:47;;;;;;;8.90;5.70;;;9.90;99.90;;;;;;5072803;28;20060;-67
2023/04/15 08:19:12;;;;;;;7.80;5.03;;;9.90;99.90;;;;;;5072766;28;20051;-67
2023/04/15 08:21:39;;;;;;;8.80;4.30;;;10.00;99.90;;;;;;5072543;28;20048;-67
2023/04/15 08:24:05;;;;;;;7.22;4.82;;;9.90;99.90;;;;;;5072686;28;20048;-67
2023/04/15 08:26:31;;;;;;;7.68;4.80;;;10.00;99.90;;;;;;5072904;28;20044;-67
2023/04/15 08:28:57;;;;;;;7.90;4.45;;;10.00;99.90;;;;;;5072580;28;20392;-67
2023/04/15 08:31:22;;;;;;;6.43;4.05;;;10.10;99.90;;;;;;5072486;28;20066;-67
2023/04/15 08:33:50;;;;;;;7.03;3.92;;;10.30;99.90;;;;;;5072436;28;20048;-68
2023/04/15 08:36:16;;;;;;;5.93;4.07;;;10.40;99.90;;;;;;5073693;28;20397;-67
2023/04/15 08:38:43;;;;;;;7.57;4.40;;;10.60;99.90;;;;;;5072650;28;20040;-67
2023/04/15 08:41:19;;;;;;;6.57;4.20;;;10.60;99.90;;;;;;5072247;28;20094;-67
2023/04/15 08:43:53;;;;;;;8.15;4.88;;;10.70;99.90;;;;;;5072339;28;20087;-68
2023/04/15 08:46:20;;;;;;;7.38;4.18;;;10.70;99.90;;;;;;5073734;28;20036;-68
2023/04/15 08:48:47;;;;;;;8.35;4.88;;;10.70;99.90;;;;;;5074031;28;20036;-67
2023/04/15 08:51:15;;;;;;;5.97;4.22;;;10.60;99.90;;;;;;5072112;28;20047;-68
2023/04/15 08:53:42;;;;;;;7.30;4.55;;;10.60;99.90;;;;;;5073685;28;20051;-67
2023/04/15 08:56:09;;;;;;;7.40;4.85;;;10.50;99.90;;;;;;5072085;28;20052;-68
2023/04/15 08:58:35;;;;;;;9.60;5.95;;;10.40;99.90;;;;;;5072264;28;20048;-67
2023/04/15 09:01:02;;;;;;;8.13;5.03;;;10.40;99.90;;;;;;5071923;28;20056;-67
2023/04/15 09:03:29;;;;;;;7.28;4.25;;;10.40;99.90;;;;;;5055979;28;20076;-68
2023/04/15 09:05:56;;;;;;;7.20;4.53;;;10.30;99.90;;;;;;5072025;28;20409;-67
2023/04/15 09:08:21;;;;;;;6.88;3.70;;;10.30;99.90;;;;;;5071975;28;20083;-67
2023/04/15 09:10:47;;;;;;;7.35;3.97;;;10.30;99.90;;;;;;5072131;28;20080;-68
2023/04/15 09:13:13;;;;;;;10.75;4.50;;;10.30;99.90;;;;;;5071905;28;20409;-67
2023/04/15 09:15:38;;;;;;;7.18;4.15;;;10.10;99.90;;;;;;5073405;28;20115;-68
2023/04/15 09:18:05;;;;;;;6.60;4.20;;;10.10;99.90;;;;;;5071896;28;20431;-68
2023/04/15 09:20:39;;;;;;;7.50;3.85;;;10.10;99.90;;;;;;5072495;28;20056;-68
2023/04/15 09:23:14;;;;;;;7.38;4.07;;;10.10;99.90;;;;;;5071858;28;20102;-67
2023/04/15 09:25:41;;;;;;;8.07;3.92;;;10.10;99.90;;;;;;5071890;28;20040;-67
2023/04/15 09:28:07;;;;;;;8.73;3.80;;;10.10;99.90;;;;;;5071755;28;20089;-67
2023/04/15 09:30:34;;;;;;;11.80;3.80;;;10.10;99.90;;;;;;5071606;28;20043;-67
2023/04/15 09:33:01;;;;;;;8.77;3.75;;;10.10;99.90;;;;;;5071644;28;20051;-67
2023/04/15 09:35:27;;;;;;;7.28;3.53;;;10.10;99.90;;;;;;5071699;28;20087;-67
2023/04/15 09:38:07;;;;;;;8.80;3.22;;;10.00;99.90;;;;;;5071886;28;20408;-67
2023/04/15 09:40:38;;;;;;;7.38;2.83;;;10.00;99.90;;;;;;5071562;28;20055;-67
2023/04/15 09:43:05;;;;;;;5.65;2.58;;;10.00;99.90;;;;;;5071665;28;20047;-67
2023/04/15 09:45:31;;;;;;;6.05;2.55;;;10.10;99.90;;;;;;5075477;28;20068;-67
2023/04/15 09:47:58;;;;;;;9.02;2.40;;;10.20;99.90;;;;;;5075886;28;20515;-67
2023/04/15 09:50:28;;;;;;;5.18;1.85;;;10.30;99.90;;;;;;5075693;28;20170;-67
2023/04/15 09:52:55;;;;;;;8.20;1.90;;;10.40;99.90;;;;;;5075873;28;20098;-67
2023/04/15 09:55:21;;;;;;;5.63;2.00;;;10.40;99.90;;;;;;5075840;28;20133;-67
2023/04/15 09:57:47;;;;;;;4.53;1.75;;;10.40;99.90;;;;;;5075730;28;20040;-67
2023/04/15 10:00:13;;;;;;;4.80;2.38;;;10.30;99.90;;;;;;5075515;28;20558;-67
2023/04/15 10:02:41;;;;;;;4.75;1.80;;;10.40;99.90;;;;;;5075653;28;20037;-67
2023/04/15 10:05:12;;;;;;;5.82;1.70;;;10.40;99.90;;;;;;5075462;28;20045;-67
2023/04/15 10:07:40;;;;;;;5.60;1.88;;;10.40;99.90;;;;;;5075555;28;20090;-67
2023/04/15 10:10:06;;;;;;;4.15;1.63;;;10.40;99.90;;;;;;5076216;28;20504;-67
2023/04/15 10:12:32;;;;;;;3.47;1.65;;;10.50;99.90;;;;;;5075050;28;20416;-68
2023/04/15 10:15:02;;;;;;;3.45;1.48;;;10.60;99.90;;;;;;5076436;28;20059;-68
2023/04/15 10:17:34;;;;;;;2.35;1.40;;;10.70;99.90;;;;;;5075112;28;20119;-68
2023/04/15 10:20:01;;;;;;;4.60;1.33;;;10.80;99.90;;;;;;5058396;28;20047;-68
2023/04/15 10:22:27;;;;;;;4.50;1.58;;;10.80;99.90;;;;;;5075676;28;20052;-68
2023/04/15 10:24:55;;;;;;;3.17;1.45;;;10.80;99.90;;;;;;5075216;28;20072;-68
2023/04/15 10:27:21;;;;;;;1.90;1.10;;;10.80;99.90;;;;;;5074919;28;20036;-68
2023/04/15 10:29:48;;;;;;;4.80;1.40;;;10.80;99.90;;;;;;5074993;28;20043;-68
2023/04/15 10:32:17;;;;;;;4.95;1.50;;;10.80;99.90;;;;;;5074771;28;20044;-68
2023/04/15 10:34:45;;;;;;;4.40;1.60;;;10.80;99.90;;;;;;5075017;28;20177;-67
2023/04/15 10:37:11;;;;;;;2.72;1.30;;;10.80;99.90;;;;;;5074749;28;20119;-67
2023/04/15 10:39:36;;;;;;;7.57;1.75;;;10.70;99.90;;;;;;5074892;28;20127;-67
2023/04/15 10:42:07;;;;;;;3.55;1.48;;;10.70;99.90;;;;;;5074576;28;20523;-68
2023/04/15 10:44:36;;;;;;;2.47;1.23;;;10.70;99.90;;;;;;5074580;28;20051;-68
2023/04/15 10:47:09;;;;;;;3.97;1.52;;;10.60;99.90;;;;;;5074541;28;20040;-67
2023/04/15 10:49:41;;;;;;;;;;;10.70;99.90;;;;;;5076233;28;20103;-67
2023/04/15 10:52:07;;;;;;;3.70;1.48;;;10.70;99.90;;;;;;5074634;28;19970;-68
2023/04/15 10:54:35;;;;;;;4.15;1.80;;;10.70;99.90;;;;;;5074430;28;20068;-67
2023/04/15 10:57:00;;;;;;;3.10;1.20;;;10.70;99.90;;;;;;5073357;28;20059;-68
2023/04/15 10:59:30;;;;;;;4.87;1.20;;;10.70;99.90;;;;;;5074539;28;20127;-67
2023/04/15 11:02:01;;;;;;;2.72;1.30;;;10.70;99.90;;;;;;5074216;28;20036;-67
2023/04/15 11:04:52;;;;;;;3.95;1.58;;;10.70;99.90;;;;;;5074258;28;20124;-67
2023/04/15 11:07:47;;;;;;;2.70;1.30;;;10.70;99.90;;;;;;5074225;28;20036;-67
2023/04/15 11:10:12;;;;;;;3.95;1.30;;;10.70;99.90;;;;;;5074034;28;20119;-67
2023/04/15 11:12:39;;;;;;;2.30;1.20;;;10.60;99.90;;;;;;5073917;28;20182;-68
2023/04/15 11:15:37;;;;;;;5.55;1.50;;;10.70;99.90;;;;;;5073889;28;20117;-68
2023/04/15 11:18:25;;;;;;;7.10;1.60;;;10.70;99.90;;;;;;5073997;28;20089;-67
2023/04/15 11:20:53;;;;;;;5.20;1.58;;;10.70;99.90;;;;;;5073848;28;20076;-68
2023/04/15 11:23:46;;;;;;;5.25;1.50;;;10.70;99.90;;;;;;5073896;28;20457;-68
2023/04/15 11:26:12;;;;;;;3.00;1.30;;;10.70;99.90;;;;;;5073935;28;20040;-67
2023/04/15 11:28:46;;;;;;;5.95;1.45;;;10.70;99.90;;;;;;5073789;28;20066;-67
2023/04/15 11:31:13;;;;;;;3.85;1.55;;;10.60;99.90;;;;;;5073723;28;20047;-68
2023/04/15 11:34:00;;;;;;;5.35;1.70;;;10.60;99.90;;;;;;5073805;28;20059;-68
2023/04/15 11:36:27;;;;;;;4.55;1.60;;;10.60;99.90;;;;;;5073873;28;20469;-68
2023/04/15 11:38:54;;;;;;;5.63;1.70;;;10.60;99.90;;;;;;5073850;28;20032;-67
2023/04/15 11:41:23;;;;;;;7.45;2.40;;;10.60;99.90;;;;;;5073570;28;20045;-68
2023/04/15 11:43:49;;;;;;;9.35;1.90;;;10.60;99.90;;;;;;5073420;28;20043;-67
2023/04/15 11:46:15;;;;;;;5.57;1.70;;;10.60;99.90;;;;;;5073336;28;20115;-68
2023/04/15 11:48:45;;;;;;;5.68;2.17;;;10.60;99.90;;;;;;5073344;28;20112;-67
2023/04/15 11:51:12;;;;;;;5.95;2.00;;;10.50;99.90;;;;;;5073186;28;20127;-68
2023/04/15 11:53:46;;;;;;;5.28;1.80;;;10.50;99.90;;;;;;5073255;28;20045;-68
2023/04/15 11:56:22;;;;;;;4.43;1.42;;;10.50;99.90;;;;;;5073240;28;20475;-68
2023/04/15 11:58:51;;;;;;;7.97;1.98;;;10.50;99.90;;;;;;5072986;28;20048;-67
2023/04/15 12:01:17;;;;;;;7.55;2.03;;;10.50;99.90;;;;;;5072972;28;20106;-67
2023/04/15 12:03:47;;;;;;;7.97;1.88;;;10.50;99.90;;;;;;5073088;28;20036;-67
2023/04/15 12:06:15;;;;;;;7.65;1.90;;;10.50;99.90;;;;;;5056480;28;20450;-67
2023/04/15 12:08:55;;;;;;;6.43;1.92;;;10.50;99.90;;;;;;5073053;28;20404;-67
2023/04/15 12:11:40;;;;;;;8.60;2.30;;;10.60;99.90;;;;;;5073111;28;20063;-67
2023/04/15 12:14:12;;;;;;;7.20;1.70;;;10.60;99.90;;;;;;5073221;28;20052;-68
2023/04/15 12:16:53;;;;;;;6.88;1.60;;;10.60;99.90;;;;;;5072831;28;20040;-67
2023/04/15 12:19:27;;;;;;;6.55;1.45;;;10.60;99.90;;;;;;5072848;28;20044;-67
2023/04/15 12:21:59;;;;;;;7.47;1.67;;;10.70;99.90;;;;;;5072965;28;20083;-68
2023/04/15 12:24:25;;;;;;;7.03;1.63;;;10.70;99.90;;;;;;5072669;28;20048;-68
2023/04/15 12:26:53;;;;;;;8.20;1.70;;;10.70;99.90;;;;;;5072664;28;20067;-68
2023/04/15 12:29:23;;;;;;;9.13;2.22;;;10.70;99.90;;;;;;5073818;28;20040;-68
2023/04/15 12:31:51;;;;;;;5.30;1.67;;;10.70;99.90;;;;;;5073065;28;20045;-68
2023/04/15 12:34:24;;;;;;;9.45;1.80;;;10.70;99.90;;;;;;5072481;28;20446;-68
2023/04/15 12:36:50;;;;;;;10.85;1.90;;;10.60;99.90;;;;;;5072529;28;20048;-68
2023/04/15 12:39:15;;;;;;;5.05;1.17;;;10.70;99.90;;;;;;5072419;28;20123;-68
2023/04/15 12:41:41;;;;;;;5.82;1.63;;;10.60;99.90;;;;;;5072274;28;20127;-68
2023/04/15 12:44:07;;;;;;;9.85;2.17;;;10.60;99.90;;;;;;5072326;28;20040;-68
2023/04/15 12:46:33;;;;;;;9.52;1.60;;;10.60;99.90;;;;;;5072333;28;20040;-68